Airfield :
LOGIN :

Register | Disclaimer

   EN    FR    IT 

 










Legend :    VFR   Marginal VFR   IFR   Intensive IFR   Very Intensive IFR
Visi :
Ceiling :
>= 8 km
>= 3000ft
5 to 8 km
1000 to 3000 ft
1500m to 5 km
500 to 1000 ft
800 to 1500m
200 to 500 ft
< 800m
< 200 ft
Symbols :   Thunderstorms  Fog  Heavy snow  Heavy precipitations  Wind > 20 kt
SIGMETs :     Misc.  Thunderstorms  Icing  Turbulence  Mountain Waves  Volcanic Ashes






- Airport Elevation : 202 ft
- IATA code : LGW


EGKK - London Gatwick

CURRENT METAR :
  • 241350Z 23006KT 9999 -SHRA SCT042 11/08 Q0996

EXPIRED METARs :
  • 241320Z 20007KT 170V230 9999 FEW020 11/08 Q0996
  • 241250Z 23012KT 200V270 9999 -SHRA FEW024 SCT037 14/07 Q0996 RERA
  • 241220Z 22010KT 190V260 9999 VCSH FEW045 15/05 Q0996
  • 241150Z 22013KT 190V250 9999 FEW041 15/05 Q0996
  • 241120Z 21013KT 180V240 9999 FEW038 15/07 Q0996

TAF TAF EGKK
Valid from the 24 at 12:00 until the 25 at 18:00 UTC


241056Z 2412/2518 21012KT 9999 SCT035
TEMPO 2412/2510 7000 SHRA RA
PROB30
TEMPO 2412/2418 21015G25KT 4000 +SHRA
BECMG 2418/2421 10003KT
PROB30
TEMPO 2418/2510 4000 +SHRA
TEMPO 2500/2510 BKN013
PROB30
TEMPO 2500/2504 BKN008
BECMG 2501/2504 32012KT
TEMPO 2507/2510 32016G26KT
BECMG 2510/2513 32020G30KT



MET'MAP, your aeronautical weather chart ! - Copyright ORBIFLY December 2007 - Disclaimer

ORBIFLY MET'MAP TEAM :

Programming & Development : Alexandra Zaïnal
Concept & original design : Baudouin d'Aumeries
Assistance for programming : Marc-Olivier Méhu
Technical & hardware support : Manuel Goepfert

Contact : metmap@orbifly.com




SOURCES & CREDITS :

   NOAA